Ben Gurion International Airport, Israel

3:04 AM IDT on June 29, 2017 (GMT +0300)
Argaman | | Change Station

Elev 135 ft 31.93 °N, 34.79 °E | Updated 8 minutes ago

Partly Cloudy
Partly Cloudy
72.4 °F
Feels Like 70 °F
N
0.0
Wind Variable Wind from SSW

Today
High -- | Low -- °F
--% Chance of Precip.
Yesterday
High -- | Low -- °F
Precip. -- in
Pressure 29.80 in
Visibility 6.2 miles
Clouds Few 1100 ft
Heat Index 70 °F
Dew Point 69 °F
Humidity 89%
Rainfall 0.00 in
Snow Depth Not available.
5:37 AM 7:50 PM
Waxing Crescent, 30% visible
METAR LLBG 282350Z VRB01KT 9999 FEW011 24/21 Q1009 TEMPO 7000 BKN010
Pressure 29.80 in
Visibility 6.2 miles
Clouds Few 1100 ft
Heat Index 70 °F
Dew Point 69 °F
Humidity 89%
Rainfall 0.00 in
Snow Depth Not available.
5:37 AM 7:50 PM
Waxing Crescent, 30% visible
METAR LLBG 282350Z VRB01KT 9999 FEW011 24/21 Q1009 TEMPO 7000 BKN010

Get Severe Weather Alerts

Thanks for signing up!

Be on the lookout for a verification email in your inbox.

You'll start receiving the daily forecast at 6 AM.

×

10-Day Weather Forecast

No radar image for this location.
×

Almanac

Astronomy

Jun. 29, 2017 Rise Set
Actual Time
Civil Twilight
Nautical Twilight
Astronomical Twilight
Moon
Length of Visible Light
Length of Day
Tomorrow will be .
, % of the Moon is Illuminated

Today's Extremes

Country Highs Country Lows

Community

WunderPhotos

Category 6

Welcome to Category 6. This is the collective home for Weather Underground's featured writeups by Dr. Jeff Masters (right), Bob Henson (left), Chris Burt, and other regular contributors.

Nearby

Air Quality

  Air Quality AQ Index Pollutant
Not available.

Snow Depth

Station Depth Elevation

Earthquake Activity

City Distance Mag. Time & Date
Minimum magnitude displayed is 2.5.

Coastal Water Temperatures

Place Temperature

Stations

Nearby Weather Stations

Station Location Temp. Windchill Dew Point Humidity Wind Precip. Elev Updated Type